Accueil
METAR-TAF:

METAR-TAF

Aéroports :

Aéroport de Bologne-Borgo Panigale

Bologne, Italie

latitude: 44-32N, longitude: 011-18E, altitude: 36 m

Observation

Le bulletin a été fait il y a 39 minutes, à 19:20 UTC
Vent 6 kt de sud/sud-ouest
Température 18°C
Humidité 59%
Pression 1004 hPa
Visibilité 10 km ou plus
pas de nuages en-dessous de 1500 mètres et pas de cumulonimbus.

METAR: LIPE 261920Z 20006KT CAVOK 18/10 Q1004

Heure: 21:59 (19:59 UTC)

Prévision

Le bulletin a été fait il y a 2 heures et 59 minutes, à 17:00 UTC
Prévision valable du 26 à 18 UTC au 27 à 18 UTC
Vent 5 kt de direction variable
Visibilité 10 km ou plus
Quelques nuages à une hauteur de 3000 ft
Evoluant progressivement
du 27 à 09 UTC au 27 à 11 UTC
Vent 10 kt de ouest
Evoluant progressivement
du 27 à 15 UTC au 27 à 17 UTC
Vent 7 kt de sud

TAF: LIPE 261700Z 2618/2718 VRB05KT 9999 FEW030 BECMG 2709/2711 27010KT BECMG 2715/2717 19007KT

Observations et prévisions météorologiques de plus de 4000 aéroports (messages METAR et TAF).

Les stations disponibles sont représentées par des disques jaunes et rouges sur la carte.

Passer la souris dessus pour voir le nom de la station.

Cliquer dessus pour voir les observations et prévisions météorologiques.

Pour changer de carte: cliquez sur les boutons verts avec une croix noire pour zoomer, sur le bouton vert avec un tiret pour effectuer un zoom arrière, ou sur les flèches vertes pour les cartes adjacentes.


METAR-TAF: